createdAt,value
2022-10-02T00:01:58.788Z,33.10
2022-10-02T00:07:06.856Z,32.90
2022-10-02T00:12:14.224Z,32.80
2022-10-02T00:17:25.351Z,32.90
2022-10-02T00:22:45.576Z,32.80
2022-10-02T00:28:15.539Z,32.50
2022-10-02T00:34:04.020Z,33.20
2022-10-02T00:39:27.971Z,32.50
2022-10-02T00:44:45.058Z,31.60
2022-10-02T00:50:17.944Z,32.50
2022-10-02T00:55:45.535Z,33.00
2022-10-02T01:01:11.404Z,33.10
2022-10-02T01:06:13.759Z,32.50
2022-10-02T01:11:16.107Z,32.40
2022-10-02T01:16:18.386Z,32.60
2022-10-02T01:21:31.156Z,32.30
2022-10-02T01:26:33.627Z,33.20
2022-10-02T01:31:36.266Z,32.50
2022-10-02T01:36:38.807Z,32.50
2022-10-02T01:41:44.442Z,32.40
2022-10-02T01:46:46.544Z,32.50
2022-10-02T01:52:17.912Z,32.70
2022-10-02T01:58:03.407Z,33.30
2022-10-02T02:04:00.131Z,33.00
2022-10-02T02:09:17.235Z,33.00
2022-10-02T02:14:33.016Z,32.90
2022-10-02T02:19:39.847Z,33.30
2022-10-02T02:24:54.388Z,33.30
2022-10-02T02:30:04.899Z,33.40
2022-10-02T02:35:21.643Z,33.40
2022-10-02T02:40:30.409Z,34.00
2022-10-02T02:45:37.658Z,33.60
2022-10-02T02:50:46.818Z,33.60
2022-10-02T02:55:58.235Z,32.60
2022-10-02T03:01:00.589Z,34.00
2022-10-02T03:06:20.435Z,33.50
2022-10-02T03:11:47.139Z,33.80
2022-10-02T03:16:49.229Z,33.40
2022-10-02T03:22:03.145Z,33.30
2022-10-02T03:27:13.919Z,33.80
2022-10-02T03:32:24.019Z,33.70
2022-10-02T03:37:27.412Z,33.50
2022-10-02T03:42:33.251Z,33.50
2022-10-02T03:47:35.403Z,33.50
2022-10-02T03:52:37.577Z,32.90
2022-10-02T03:57:42.722Z,33.40
2022-10-02T04:03:01.698Z,33.30
2022-10-02T04:08:12.922Z,33.10
2022-10-02T04:13:19.732Z,34.00
2022-10-02T04:18:36.229Z,33.30
2022-10-02T04:23:46.183Z,33.60
2022-10-02T04:28:58.284Z,33.30
2022-10-02T04:34:03.071Z,33.30
2022-10-02T04:39:23.392Z,33.20
2022-10-02T04:44:55.321Z,33.70
2022-10-02T04:50:16.119Z,33.30
2022-10-02T04:55:27.547Z,33.70
2022-10-02T05:00:45.471Z,32.70
2022-10-02T05:06:13.441Z,33.80
2022-10-02T05:11:40.365Z,33.60
2022-10-02T05:17:27.104Z,34.10
2022-10-02T05:22:44.266Z,33.60
2022-10-02T05:28:24.379Z,33.80
2022-10-02T05:33:38.706Z,33.80
2022-10-02T05:39:07.148Z,33.80
2022-10-02T05:44:22.336Z,33.10
2022-10-02T05:49:34.819Z,34.00
2022-10-02T05:54:36.916Z,34.00
2022-10-02T06:00:19.049Z,33.50
2022-10-02T06:05:26.950Z,33.60
2022-10-02T06:10:42.509Z,32.80
2022-10-02T06:15:52.089Z,33.50
2022-10-02T06:21:22.742Z,33.70
2022-10-02T06:26:40.094Z,33.40
2022-10-02T06:31:53.145Z,33.50
2022-10-02T06:37:26.911Z,33.40
2022-10-02T06:42:28.966Z,33.90
2022-10-02T06:47:49.796Z,33.50
2022-10-02T06:53:16.875Z,34.00
2022-10-02T06:58:39.672Z,34.30
2022-10-02T07:03:49.620Z,34.00
2022-10-02T07:09:12.382Z,33.90
2022-10-02T07:14:38.849Z,35.00
2022-10-02T07:19:51.925Z,34.10
2022-10-02T07:25:24.250Z,34.30
2022-10-02T07:30:33.258Z,33.10
2022-10-02T07:35:43.971Z,33.40
2022-10-02T07:41:16.395Z,34.20
2022-10-02T07:46:43.037Z,34.60
2022-10-02T07:51:57.850Z,34.20
2022-10-02T07:57:24.242Z,34.60
2022-10-02T08:03:00.324Z,34.40
2022-10-02T08:08:10.513Z,34.80
2022-10-02T08:13:45.871Z,34.80
2022-10-02T08:18:54.496Z,34.40
2022-10-02T08:24:04.336Z,34.70
2022-10-02T08:29:15.978Z,34.60
2022-10-02T08:34:23.579Z,34.60
2022-10-02T08:39:37.825Z,34.60
2022-10-02T08:44:45.806Z,33.60
2022-10-02T08:50:01.491Z,35.10
2022-10-02T08:55:26.037Z,34.70
2022-10-02T09:00:46.497Z,34.70
2022-10-02T09:06:00.657Z,34.90
2022-10-02T09:11:19.475Z,34.70
2022-10-02T09:16:59.803Z,34.30
2022-10-02T09:22:17.395Z,35.00
2022-10-02T09:27:31.499Z,34.70
2022-10-02T09:33:04.116Z,34.80
2022-10-02T09:38:39.260Z,34.60
2022-10-02T09:44:28.266Z,34.60
2022-10-02T09:49:44.654Z,34.70
2022-10-02T09:55:29.368Z,34.40
2022-10-02T10:01:08.430Z,34.60
2022-10-02T10:06:32.511Z,34.00
2022-10-02T10:12:03.125Z,34.50
2022-10-02T10:17:20.203Z,34.50
2022-10-02T10:22:40.145Z,34.50
2022-10-02T10:27:58.567Z,34.70
2022-10-02T10:33:25.430Z,34.00
2022-10-02T10:38:39.000Z,34.80
2022-10-02T10:44:19.714Z,34.60
2022-10-02T10:49:37.821Z,34.90
2022-10-02T10:55:07.959Z,34.60
2022-10-02T11:00:34.450Z,34.80
2022-10-02T11:06:12.433Z,34.30
2022-10-02T11:11:31.573Z,33.80
2022-10-02T11:16:52.670Z,32.80
2022-10-02T11:22:14.581Z,33.70
2022-10-02T11:27:42.690Z,33.50
2022-10-02T11:32:59.894Z,33.90
2022-10-02T11:38:45.441Z,33.50
2022-10-02T11:44:12.600Z,33.80
2022-10-02T11:49:29.430Z,33.50
2022-10-02T11:54:37.449Z,33.90
2022-10-02T11:59:49.372Z,33.40
2022-10-02T12:05:13.486Z,33.50
2022-10-02T12:10:30.422Z,33.80
2022-10-02T12:16:01.792Z,33.60
2022-10-02T12:21:40.045Z,33.50
2022-10-02T12:27:15.751Z,34.00
2022-10-02T12:32:24.338Z,33.70
2022-10-02T12:37:36.488Z,32.90
2022-10-02T12:43:11.336Z,34.00
2022-10-02T12:48:16.254Z,34.00
2022-10-02T12:53:49.781Z,33.10
2022-10-02T12:59:08.422Z,33.80
2022-10-02T13:04:47.899Z,33.70
2022-10-02T13:09:56.224Z,33.50
2022-10-02T13:15:43.510Z,33.50
2022-10-02T13:21:11.756Z,33.40
2022-10-02T13:26:24.488Z,33.20
2022-10-02T13:32:01.895Z,33.50
2022-10-02T13:37:19.123Z,33.50
2022-10-02T13:42:37.067Z,33.50
2022-10-02T13:47:44.023Z,33.30
2022-10-02T13:53:10.567Z,33.30
2022-10-02T13:58:30.509Z,33.10
2022-10-02T14:03:44.599Z,33.50
2022-10-02T14:08:52.514Z,33.40
2022-10-02T14:14:25.462Z,33.60
2022-10-02T14:19:30.326Z,33.70
2022-10-02T14:24:59.728Z,33.70
2022-10-02T14:30:21.301Z,33.40
2022-10-02T14:35:28.751Z,33.20
2022-10-02T14:40:49.504Z,33.30
2022-10-02T14:46:07.494Z,33.80
2022-10-02T14:51:56.045Z,33.20
2022-10-02T14:57:19.782Z,33.50
2022-10-02T15:02:44.684Z,33.70
2022-10-02T15:07:47.403Z,33.70
2022-10-02T15:13:09.249Z,33.40
2022-10-02T15:18:38.651Z,33.40
2022-10-02T15:23:50.419Z,33.40
2022-10-02T15:29:12.551Z,33.30
2022-10-02T15:34:33.620Z,33.40
2022-10-02T15:39:41.730Z,34.00
2022-10-02T15:45:06.440Z,34.40
2022-10-02T15:50:11.459Z,33.80
2022-10-02T15:55:40.334Z,34.00
2022-10-02T16:01:32.005Z,33.40
2022-10-02T16:06:53.481Z,34.10
2022-10-02T16:12:20.349Z,34.60
2022-10-02T16:17:36.227Z,34.20
2022-10-02T16:23:05.711Z,33.10
2022-10-02T16:28:31.345Z,33.90
2022-10-02T16:34:12.143Z,34.30
2022-10-02T16:39:39.837Z,34.50
2022-10-02T16:45:01.225Z,34.20
2022-10-02T16:50:24.461Z,33.90
2022-10-02T16:55:41.886Z,34.50
2022-10-02T17:00:43.965Z,34.20
2022-10-02T17:05:56.324Z,34.10
2022-10-02T17:11:27.894Z,34.10
2022-10-02T17:16:47.298Z,34.10
2022-10-02T17:22:01.391Z,33.50
2022-10-02T17:27:27.598Z,34.20
2022-10-02T17:32:51.110Z,34.10
2022-10-02T17:38:30.542Z,33.80
2022-10-02T17:43:50.559Z,34.20
2022-10-02T17:49:22.905Z,34.10
2022-10-02T17:55:03.466Z,33.50
2022-10-02T18:00:28.557Z,34.20
2022-10-02T18:05:49.071Z,33.50
2022-10-02T18:11:05.819Z,34.00
2022-10-02T18:16:33.177Z,33.20
2022-10-02T18:21:50.722Z,33.10
2022-10-02T18:27:05.022Z,32.90
2022-10-02T18:32:20.214Z,32.90
2022-10-02T18:38:07.078Z,32.50
2022-10-02T18:43:33.462Z,33.20
2022-10-02T18:48:35.495Z,33.10
2022-10-02T18:53:37.523Z,32.60
2022-10-02T18:58:56.787Z,32.70
2022-10-02T19:04:29.870Z,32.90
2022-10-02T19:09:32.130Z,32.90
2022-10-02T19:14:41.782Z,32.60
2022-10-02T19:19:44.595Z,32.70
2022-10-02T19:24:51.895Z,32.70
2022-10-02T19:30:01.304Z,32.80
2022-10-02T19:35:15.206Z,33.10
2022-10-02T19:40:24.714Z,32.50
2022-10-02T19:45:32.624Z,32.20
2022-10-02T19:50:55.265Z,32.20
2022-10-02T19:55:59.908Z,32.60
2022-10-02T20:01:03.743Z,32.40
2022-10-02T20:06:21.036Z,32.70
2022-10-02T20:11:26.583Z,32.80
2022-10-02T20:16:47.333Z,32.40
2022-10-02T20:21:58.065Z,32.30
2022-10-02T20:27:11.381Z,32.90
2022-10-02T20:32:15.743Z,32.30
2022-10-02T20:37:26.137Z,33.10
2022-10-02T20:42:35.480Z,32.30
2022-10-02T20:48:03.675Z,32.30
2022-10-02T20:53:26.871Z,32.50
2022-10-02T20:58:45.012Z,32.30
2022-10-02T21:04:09.443Z,32.60
2022-10-02T21:09:33.425Z,32.90
2022-10-02T21:15:12.279Z,32.20
2022-10-02T21:20:46.170Z,32.50
2022-10-02T21:25:49.908Z,32.60
2022-10-02T21:31:21.929Z,32.50
2022-10-02T21:36:33.590Z,32.40
2022-10-02T21:42:03.520Z,32.30
2022-10-02T21:47:23.209Z,32.70
2022-10-02T21:52:46.601Z,32.30
2022-10-02T21:58:10.221Z,32.60
2022-10-02T22:03:40.872Z,32.60
2022-10-02T22:09:18.282Z,32.60
2022-10-02T22:14:41.084Z,32.60
2022-10-02T22:19:49.055Z,32.50
2022-10-02T22:25:11.332Z,32.60
2022-10-02T22:30:28.293Z,33.30
2022-10-02T22:36:07.408Z,33.60
2022-10-02T22:41:35.939Z,33.20
2022-10-02T22:46:47.345Z,32.90
2022-10-02T22:52:00.145Z,33.70
2022-10-02T22:57:03.361Z,33.50
2022-10-02T23:02:11.613Z,33.70
2022-10-02T23:07:30.974Z,33.40
2022-10-02T23:12:40.835Z,34.00
2022-10-02T23:17:53.165Z,33.90
2022-10-02T23:23:41.292Z,34.10
2022-10-02T23:29:19.196Z,34.20
2022-10-02T23:34:33.401Z,34.00
2022-10-02T23:40:16.166Z,35.00
2022-10-02T23:45:34.364Z,34.20
2022-10-02T23:51:12.364Z,34.20
2022-10-02T23:56:33.128Z,34.80
